sensor_id;sensor_type;location;lat;lon;timestamp;P1;durP1;ratioP1;P2;durP2;ratioP2
49840;SDS011;35738;49.890;5.930;2022-12-18T00:02:07;9.93;;;4.23;;
49840;SDS011;35738;49.890;5.930;2022-12-18T00:04:34;9.43;;;4.50;;
49840;SDS011;35738;49.890;5.930;2022-12-18T00:07:00;8.37;;;4.67;;
49840;SDS011;35738;49.890;5.930;2022-12-18T00:09:27;7.93;;;4.33;;
49840;SDS011;35738;49.890;5.930;2022-12-18T00:12:04;9.67;;;4.50;;
49840;SDS011;35738;49.890;5.930;2022-12-18T00:14:41;8.77;;;4.20;;
49840;SDS011;35738;49.890;5.930;2022-12-18T00:17:08;7.40;;;4.30;;
49840;SDS011;35738;49.890;5.930;2022-12-18T00:19:35;8.03;;;4.50;;
49840;SDS011;35738;49.890;5.930;2022-12-18T00:22:01;8.70;;;4.70;;
49840;SDS011;35738;49.890;5.930;2022-12-18T00:24:28;11.27;;;5.10;;
49840;SDS011;35738;49.890;5.930;2022-12-18T00:26:55;8.00;;;4.37;;
49840;SDS011;35738;49.890;5.930;2022-12-18T00:29:21;10.33;;;4.73;;
49840;SDS011;35738;49.890;5.930;2022-12-18T00:31:48;9.80;;;4.83;;
49840;SDS011;35738;49.890;5.930;2022-12-18T00:34:15;7.83;;;4.67;;
49840;SDS011;35738;49.890;5.930;2022-12-18T00:36:41;8.87;;;4.97;;
49840;SDS011;35738;49.890;5.930;2022-12-18T00:39:09;10.20;;;4.40;;
49840;SDS011;35738;49.890;5.930;2022-12-18T00:41:37;8.60;;;4.70;;
49840;SDS011;35738;49.890;5.930;2022-12-18T00:44:22;7.17;;;4.23;;
49840;SDS011;35738;49.890;5.930;2022-12-18T00:46:49;9.43;;;4.90;;
49840;SDS011;35738;49.890;5.930;2022-12-18T00:49:16;7.67;;;4.20;;
49840;SDS011;35738;49.890;5.930;2022-12-18T00:51:45;7.67;;;4.30;;
49840;SDS011;35738;49.890;5.930;2022-12-18T00:54:13;8.37;;;3.93;;
49840;SDS011;35738;49.890;5.930;2022-12-18T00:56:40;10.20;;;4.67;;
49840;SDS011;35738;49.890;5.930;2022-12-18T00:59:18;7.93;;;4.67;;
49840;SDS011;35738;49.890;5.930;2022-12-18T01:01:45;8.63;;;4.77;;
49840;SDS011;35738;49.890;5.930;2022-12-18T01:04:12;9.60;;;4.93;;
49840;SDS011;35738;49.890;5.930;2022-12-18T01:06:39;10.43;;;4.87;;
49840;SDS011;35738;49.890;5.930;2022-12-18T01:09:06;11.20;;;4.80;;
49840;SDS011;35738;49.890;5.930;2022-12-18T01:11:32;9.00;;;5.27;;
49840;SDS011;35738;49.890;5.930;2022-12-18T01:13:59;8.77;;;4.70;;
49840;SDS011;35738;49.890;5.930;2022-12-18T01:16:26;9.33;;;4.90;;
49840;SDS011;35738;49.890;5.930;2022-12-18T01:18:53;8.50;;;4.63;;
49840;SDS011;35738;49.890;5.930;2022-12-18T01:21:20;8.47;;;5.17;;
49840;SDS011;35738;49.890;5.930;2022-12-18T01:23:50;9.27;;;4.30;;
49840;SDS011;35738;49.890;5.930;2022-12-18T01:26:19;9.93;;;4.70;;
49840;SDS011;35738;49.890;5.930;2022-12-18T01:28:46;7.87;;;4.37;;
49840;SDS011;35738;49.890;5.930;2022-12-18T01:31:15;8.07;;;4.10;;
49840;SDS011;35738;49.890;5.930;2022-12-18T01:33:55;8.60;;;4.60;;
49840;SDS011;35738;49.890;5.930;2022-12-18T01:36:29;7.30;;;4.63;;
49840;SDS011;35738;49.890;5.930;2022-12-18T01:39:04;8.63;;;4.30;;
49840;SDS011;35738;49.890;5.930;2022-12-18T01:41:36;8.47;;;4.63;;
49840;SDS011;35738;49.890;5.930;2022-12-18T01:52:42;8.03;;;4.43;;
49840;SDS011;35738;49.890;5.930;2022-12-18T01:55:13;5.93;;;3.90;;
49840;SDS011;35738;49.890;5.930;2022-12-18T01:57:42;8.27;;;4.63;;
49840;SDS011;35738;49.890;5.930;2022-12-18T02:00:11;9.57;;;4.53;;
49840;SDS011;35738;49.890;5.930;2022-12-18T02:02:40;9.50;;;5.13;;
49840;SDS011;35738;49.890;5.930;2022-12-18T02:05:09;8.40;;;4.53;;
49840;SDS011;35738;49.890;5.930;2022-12-18T02:16:01;8.83;;;5.17;;
49840;SDS011;35738;49.890;5.930;2022-12-18T02:18:57;9.30;;;4.90;;
49840;SDS011;35738;49.890;5.930;2022-12-18T02:25:11;7.80;;;4.33;;
49840;SDS011;35738;49.890;5.930;2022-12-18T02:27:57;7.83;;;4.70;;
49840;SDS011;35738;49.890;5.930;2022-12-18T02:30:27;8.67;;;5.30;;
49840;SDS011;35738;49.890;5.930;2022-12-18T02:32:57;11.30;;;5.50;;
49840;SDS011;35738;49.890;5.930;2022-12-18T02:35:27;8.67;;;5.40;;
49840;SDS011;35738;49.890;5.930;2022-12-18T02:37:56;10.90;;;5.93;;
49840;SDS011;35738;49.890;5.930;2022-12-18T02:40:24;11.57;;;5.60;;
49840;SDS011;35738;49.890;5.930;2022-12-18T02:42:53;9.07;;;5.50;;
49840;SDS011;35738;49.890;5.930;2022-12-18T02:45:20;12.50;;;5.77;;
49840;SDS011;35738;49.890;5.930;2022-12-18T02:47:48;13.03;;;5.77;;
49840;SDS011;35738;49.890;5.930;2022-12-18T02:50:38;9.33;;;5.80;;
49840;SDS011;35738;49.890;5.930;2022-12-18T02:56:09;10.57;;;5.87;;
49840;SDS011;35738;49.890;5.930;2022-12-18T03:01:25;10.43;;;5.50;;
49840;SDS011;35738;49.890;5.930;2022-12-18T03:04:34;10.33;;;5.23;;
49840;SDS011;35738;49.890;5.930;2022-12-18T03:06:58;11.27;;;5.70;;
49840;SDS011;35738;49.890;5.930;2022-12-18T03:09:32;11.03;;;5.87;;
49840;SDS011;35738;49.890;5.930;2022-12-18T03:12:07;10.03;;;5.80;;
49840;SDS011;35738;49.890;5.930;2022-12-18T03:14:56;9.47;;;5.33;;
49840;SDS011;35738;49.890;5.930;2022-12-18T03:17:44;10.07;;;5.80;;
49840;SDS011;35738;49.890;5.930;2022-12-18T03:20:20;11.17;;;5.50;;
49840;SDS011;35738;49.890;5.930;2022-12-18T03:22:49;9.70;;;5.57;;
49840;SDS011;35738;49.890;5.930;2022-12-18T03:25:19;11.17;;;5.90;;
49840;SDS011;35738;49.890;5.930;2022-12-18T03:27:49;12.00;;;6.40;;
49840;SDS011;35738;49.890;5.930;2022-12-18T03:30:20;8.07;;;5.40;;
49840;SDS011;35738;49.890;5.930;2022-12-18T03:32:48;11.33;;;6.13;;
49840;SDS011;35738;49.890;5.930;2022-12-18T03:35:29;14.37;;;6.13;;
49840;SDS011;35738;49.890;5.930;2022-12-18T03:37:59;10.97;;;6.27;;
49840;SDS011;35738;49.890;5.930;2022-12-18T03:40:40;11.10;;;5.70;;
49840;SDS011;35738;49.890;5.930;2022-12-18T03:46:07;9.77;;;6.03;;
49840;SDS011;35738;49.890;5.930;2022-12-18T03:48:42;10.50;;;6.10;;
49840;SDS011;35738;49.890;5.930;2022-12-18T03:51:18;11.93;;;6.33;;
49840;SDS011;35738;49.890;5.930;2022-12-18T03:53:58;11.63;;;6.37;;
49840;SDS011;35738;49.890;5.930;2022-12-18T03:56:33;13.23;;;6.63;;
49840;SDS011;35738;49.890;5.930;2022-12-18T03:59:04;11.67;;;6.10;;
49840;SDS011;35738;49.890;5.930;2022-12-18T04:01:35;13.53;;;6.70;;
49840;SDS011;35738;49.890;5.930;2022-12-18T04:04:06;14.50;;;6.73;;
49840;SDS011;35738;49.890;5.930;2022-12-18T04:06:34;12.43;;;6.30;;
49840;SDS011;35738;49.890;5.930;2022-12-18T04:09:02;11.60;;;5.87;;
49840;SDS011;35738;49.890;5.930;2022-12-18T04:11:30;13.70;;;6.37;;
49840;SDS011;35738;49.890;5.930;2022-12-18T04:13:57;14.83;;;7.10;;
49840;SDS011;35738;49.890;5.930;2022-12-18T04:16:25;13.63;;;6.70;;
49840;SDS011;35738;49.890;5.930;2022-12-18T04:18:52;11.43;;;6.57;;
49840;SDS011;35738;49.890;5.930;2022-12-18T04:21:20;11.97;;;6.97;;
49840;SDS011;35738;49.890;5.930;2022-12-18T04:23:47;15.13;;;7.53;;
49840;SDS011;35738;49.890;5.930;2022-12-18T04:26:13;13.00;;;7.17;;
49840;SDS011;35738;49.890;5.930;2022-12-18T04:28:40;14.13;;;7.70;;
49840;SDS011;35738;49.890;5.930;2022-12-18T04:31:07;14.43;;;7.47;;
49840;SDS011;35738;49.890;5.930;2022-12-18T04:33:33;13.50;;;7.13;;
49840;SDS011;35738;49.890;5.930;2022-12-18T04:36:00;15.10;;;7.53;;
49840;SDS011;35738;49.890;5.930;2022-12-18T04:38:26;15.10;;;7.80;;
49840;SDS011;35738;49.890;5.930;2022-12-18T04:40:53;13.37;;;7.70;;
49840;SDS011;35738;49.890;5.930;2022-12-18T04:43:20;15.97;;;8.57;;
49840;SDS011;35738;49.890;5.930;2022-12-18T04:45:47;16.00;;;8.77;;
49840;SDS011;35738;49.890;5.930;2022-12-18T04:48:13;16.60;;;8.50;;
49840;SDS011;35738;49.890;5.930;2022-12-18T04:50:40;17.63;;;8.63;;
49840;SDS011;35738;49.890;5.930;2022-12-18T04:53:06;18.00;;;9.33;;
49840;SDS011;35738;49.890;5.930;2022-12-18T04:55:33;15.73;;;7.90;;
49840;SDS011;35738;49.890;5.930;2022-12-18T04:58:00;17.73;;;9.20;;
49840;SDS011;35738;49.890;5.930;2022-12-18T05:00:26;18.97;;;8.67;;
49840;SDS011;35738;49.890;5.930;2022-12-18T05:02:53;16.57;;;8.10;;
49840;SDS011;35738;49.890;5.930;2022-12-18T05:05:20;15.90;;;8.63;;
49840;SDS011;35738;49.890;5.930;2022-12-18T05:07:47;17.67;;;9.10;;
49840;SDS011;35738;49.890;5.930;2022-12-18T05:10:13;18.93;;;8.63;;
49840;SDS011;35738;49.890;5.930;2022-12-18T05:12:40;18.83;;;9.70;;
49840;SDS011;35738;49.890;5.930;2022-12-18T05:15:27;19.27;;;9.63;;
49840;SDS011;35738;49.890;5.930;2022-12-18T05:17:57;18.00;;;9.60;;
49840;SDS011;35738;49.890;5.930;2022-12-18T05:20:26;18.73;;;9.17;;
49840;SDS011;35738;49.890;5.930;2022-12-18T05:22:53;19.17;;;10.10;;
49840;SDS011;35738;49.890;5.930;2022-12-18T05:25:20;21.50;;;9.97;;
49840;SDS011;35738;49.890;5.930;2022-12-18T05:27:47;18.93;;;9.70;;
49840;SDS011;35738;49.890;5.930;2022-12-18T05:30:14;22.90;;;10.50;;
49840;SDS011;35738;49.890;5.930;2022-12-18T05:32:42;19.97;;;10.33;;
49840;SDS011;35738;49.890;5.930;2022-12-18T05:35:09;19.97;;;10.10;;
49840;SDS011;35738;49.890;5.930;2022-12-18T05:37:37;21.50;;;10.87;;
49840;SDS011;35738;49.890;5.930;2022-12-18T05:40:08;22.60;;;10.50;;
49840;SDS011;35738;49.890;5.930;2022-12-18T05:42:35;24.90;;;11.77;;
49840;SDS011;35738;49.890;5.930;2022-12-18T05:45:02;21.00;;;10.37;;
49840;SDS011;35738;49.890;5.930;2022-12-18T05:47:29;24.30;;;10.83;;
49840;SDS011;35738;49.890;5.930;2022-12-18T05:49:56;18.47;;;9.57;;
49840;SDS011;35738;49.890;5.930;2022-12-18T05:52:22;23.13;;;10.47;;
49840;SDS011;35738;49.890;5.930;2022-12-18T05:54:49;22.07;;;10.93;;
49840;SDS011;35738;49.890;5.930;2022-12-18T05:57:16;23.87;;;10.73;;
49840;SDS011;35738;49.890;5.930;2022-12-18T05:59:43;24.53;;;10.73;;
49840;SDS011;35738;49.890;5.930;2022-12-18T06:02:09;24.40;;;11.23;;
49840;SDS011;35738;49.890;5.930;2022-12-18T06:04:36;22.93;;;10.40;;
49840;SDS011;35738;49.890;5.930;2022-12-18T06:07:03;22.70;;;11.00;;
49840;SDS011;35738;49.890;5.930;2022-12-18T06:09:29;20.03;;;9.67;;
49840;SDS011;35738;49.890;5.930;2022-12-18T06:11:56;22.27;;;10.60;;
49840;SDS011;35738;49.890;5.930;2022-12-18T06:14:23;23.90;;;10.60;;
49840;SDS011;35738;49.890;5.930;2022-12-18T06:16:52;21.67;;;10.53;;
49840;SDS011;35738;49.890;5.930;2022-12-18T06:19:19;24.63;;;10.80;;
49840;SDS011;35738;49.890;5.930;2022-12-18T06:21:46;23.50;;;11.73;;
49840;SDS011;35738;49.890;5.930;2022-12-18T06:24:17;24.73;;;11.63;;
49840;SDS011;35738;49.890;5.930;2022-12-18T06:26:43;23.10;;;10.87;;
49840;SDS011;35738;49.890;5.930;2022-12-18T06:29:10;23.07;;;10.83;;
49840;SDS011;35738;49.890;5.930;2022-12-18T06:31:37;23.57;;;10.97;;
49840;SDS011;35738;49.890;5.930;2022-12-18T06:34:04;23.27;;;11.50;;
49840;SDS011;35738;49.890;5.930;2022-12-18T06:36:31;29.40;;;12.33;;
49840;SDS011;35738;49.890;5.930;2022-12-18T06:38:58;23.50;;;11.07;;
49840;SDS011;35738;49.890;5.930;2022-12-18T06:41:25;25.73;;;11.63;;
49840;SDS011;35738;49.890;5.930;2022-12-18T06:43:51;23.50;;;11.23;;
49840;SDS011;35738;49.890;5.930;2022-12-18T06:46:24;28.30;;;11.93;;
49840;SDS011;35738;49.890;5.930;2022-12-18T06:48:51;23.73;;;11.30;;
49840;SDS011;35738;49.890;5.930;2022-12-18T06:51:21;26.40;;;12.07;;
49840;SDS011;35738;49.890;5.930;2022-12-18T06:53:49;25.77;;;11.37;;
49840;SDS011;35738;49.890;5.930;2022-12-18T06:56:16;23.97;;;11.67;;
49840;SDS011;35738;49.890;5.930;2022-12-18T06:58:42;26.60;;;12.77;;
49840;SDS011;35738;49.890;5.930;2022-12-18T07:01:10;29.80;;;13.23;;
49840;SDS011;35738;49.890;5.930;2022-12-18T07:03:38;25.53;;;12.60;;
49840;SDS011;35738;49.890;5.930;2022-12-18T07:06:12;31.93;;;13.30;;
49840;SDS011;35738;49.890;5.930;2022-12-18T07:08:40;26.90;;;12.53;;
49840;SDS011;35738;49.890;5.930;2022-12-18T07:11:06;27.87;;;13.37;;
49840;SDS011;35738;49.890;5.930;2022-12-18T07:13:33;25.97;;;13.47;;
49840;SDS011;35738;49.890;5.930;2022-12-18T07:16:04;26.33;;;13.20;;
49840;SDS011;35738;49.890;5.930;2022-12-18T07:18:49;26.80;;;12.50;;
49840;SDS011;35738;49.890;5.930;2022-12-18T07:21:17;29.47;;;13.90;;
49840;SDS011;35738;49.890;5.930;2022-12-18T07:23:44;26.90;;;12.90;;
49840;SDS011;35738;49.890;5.930;2022-12-18T07:26:15;26.70;;;12.73;;
49840;SDS011;35738;49.890;5.930;2022-12-18T07:28:44;27.23;;;12.53;;
49840;SDS011;35738;49.890;5.930;2022-12-18T07:31:11;27.17;;;13.73;;
49840;SDS011;35738;49.890;5.930;2022-12-18T07:33:41;27.60;;;12.70;;
49840;SDS011;35738;49.890;5.930;2022-12-18T07:36:08;29.23;;;14.00;;
49840;SDS011;35738;49.890;5.930;2022-12-18T07:38:36;28.23;;;13.00;;
49840;SDS011;35738;49.890;5.930;2022-12-18T07:41:04;26.47;;;13.33;;
49840;SDS011;35738;49.890;5.930;2022-12-18T07:43:40;24.47;;;12.90;;
49840;SDS011;35738;49.890;5.930;2022-12-18T07:46:08;27.07;;;12.90;;
49840;SDS011;35738;49.890;5.930;2022-12-18T07:48:38;24.07;;;12.20;;
49840;SDS011;35738;49.890;5.930;2022-12-18T07:51:05;26.77;;;13.47;;
49840;SDS011;35738;49.890;5.930;2022-12-18T07:53:33;28.27;;;13.93;;
49840;SDS011;35738;49.890;5.930;2022-12-18T07:56:03;27.87;;;12.53;;
49840;SDS011;35738;49.890;5.930;2022-12-18T07:58:51;24.23;;;11.80;;
49840;SDS011;35738;49.890;5.930;2022-12-18T08:01:18;25.33;;;12.60;;
49840;SDS011;35738;49.890;5.930;2022-12-18T08:03:46;26.00;;;13.27;;
49840;SDS011;35738;49.890;5.930;2022-12-18T08:06:13;29.33;;;13.83;;
49840;SDS011;35738;49.890;5.930;2022-12-18T08:08:40;31.43;;;13.57;;
49840;SDS011;35738;49.890;5.930;2022-12-18T08:11:08;28.27;;;14.07;;
49840;SDS011;35738;49.890;5.930;2022-12-18T08:13:35;34.00;;;14.17;;
49840;SDS011;35738;49.890;5.930;2022-12-18T08:16:03;29.37;;;13.70;;
49840;SDS011;35738;49.890;5.930;2022-12-18T08:18:34;29.43;;;14.23;;
49840;SDS011;35738;49.890;5.930;2022-12-18T08:21:12;30.87;;;13.43;;
49840;SDS011;35738;49.890;5.930;2022-12-18T08:23:41;26.63;;;13.03;;
49840;SDS011;35738;49.890;5.930;2022-12-18T08:26:09;28.40;;;12.63;;
49840;SDS011;35738;49.890;5.930;2022-12-18T08:28:37;32.20;;;13.60;;
49840;SDS011;35738;49.890;5.930;2022-12-18T08:31:03;31.80;;;14.67;;
49840;SDS011;35738;49.890;5.930;2022-12-18T08:33:31;31.10;;;14.53;;
49840;SDS011;35738;49.890;5.930;2022-12-18T08:35:58;34.33;;;16.00;;
49840;SDS011;35738;49.890;5.930;2022-12-18T08:38:26;28.00;;;13.53;;
49840;SDS011;35738;49.890;5.930;2022-12-18T08:40:59;26.20;;;13.70;;
49840;SDS011;35738;49.890;5.930;2022-12-18T08:43:26;32.37;;;13.20;;
49840;SDS011;35738;49.890;5.930;2022-12-18T08:46:12;34.63;;;15.53;;
49840;SDS011;35738;49.890;5.930;2022-12-18T08:48:39;31.80;;;14.83;;
49840;SDS011;35738;49.890;5.930;2022-12-18T08:51:06;31.30;;;14.07;;
49840;SDS011;35738;49.890;5.930;2022-12-18T08:53:33;31.07;;;14.20;;
49840;SDS011;35738;49.890;5.930;2022-12-18T08:56:01;32.10;;;14.67;;
49840;SDS011;35738;49.890;5.930;2022-12-18T08:58:29;29.73;;;13.70;;
49840;SDS011;35738;49.890;5.930;2022-12-18T09:01:02;33.27;;;15.23;;
49840;SDS011;35738;49.890;5.930;2022-12-18T09:03:30;30.30;;;14.30;;
49840;SDS011;35738;49.890;5.930;2022-12-18T09:05:57;30.73;;;14.33;;
49840;SDS011;35738;49.890;5.930;2022-12-18T09:08:24;37.03;;;17.00;;
49840;SDS011;35738;49.890;5.930;2022-12-18T09:10:50;33.60;;;15.10;;
49840;SDS011;35738;49.890;5.930;2022-12-18T09:13:18;34.60;;;15.43;;
49840;SDS011;35738;49.890;5.930;2022-12-18T09:15:45;31.83;;;15.60;;
49840;SDS011;35738;49.890;5.930;2022-12-18T09:18:14;33.47;;;16.77;;
49840;SDS011;35738;49.890;5.930;2022-12-18T09:20:43;35.03;;;17.27;;
49840;SDS011;35738;49.890;5.930;2022-12-18T09:23:10;30.37;;;14.67;;
49840;SDS011;35738;49.890;5.930;2022-12-18T09:25:37;33.63;;;16.30;;
49840;SDS011;35738;49.890;5.930;2022-12-18T09:28:11;33.63;;;15.93;;
49840;SDS011;35738;49.890;5.930;2022-12-18T09:30:47;35.50;;;16.57;;
49840;SDS011;35738;49.890;5.930;2022-12-18T09:33:15;34.20;;;16.87;;
49840;SDS011;35738;49.890;5.930;2022-12-18T09:35:43;34.17;;;16.43;;
49840;SDS011;35738;49.890;5.930;2022-12-18T09:38:11;32.40;;;15.67;;
49840;SDS011;35738;49.890;5.930;2022-12-18T09:40:48;36.57;;;15.87;;
49840;SDS011;35738;49.890;5.930;2022-12-18T09:43:18;31.57;;;16.27;;
49840;SDS011;35738;49.890;5.930;2022-12-18T09:45:51;34.70;;;16.30;;
49840;SDS011;35738;49.890;5.930;2022-12-18T09:48:25;31.87;;;15.17;;
49840;SDS011;35738;49.890;5.930;2022-12-18T09:51:11;36.23;;;16.63;;
49840;SDS011;35738;49.890;5.930;2022-12-18T09:53:44;37.43;;;18.17;;
49840;SDS011;35738;49.890;5.930;2022-12-18T09:56:17;35.63;;;16.57;;
49840;SDS011;35738;49.890;5.930;2022-12-18T09:58:50;34.87;;;15.87;;
49840;SDS011;35738;49.890;5.930;2022-12-18T10:01:23;34.37;;;15.63;;
49840;SDS011;35738;49.890;5.930;2022-12-18T10:03:58;37.53;;;16.33;;
49840;SDS011;35738;49.890;5.930;2022-12-18T10:14:18;33.30;;;16.40;;
49840;SDS011;35738;49.890;5.930;2022-12-18T10:22:19;35.00;;;16.60;;
49840;SDS011;35738;49.890;5.930;2022-12-18T10:25:10;36.97;;;17.07;;
49840;SDS011;35738;49.890;5.930;2022-12-18T10:27:48;35.77;;;16.70;;
49840;SDS011;35738;49.890;5.930;2022-12-18T10:30:21;38.13;;;17.83;;
49840;SDS011;35738;49.890;5.930;2022-12-18T10:32:49;37.07;;;17.80;;
49840;SDS011;35738;49.890;5.930;2022-12-18T10:35:18;35.83;;;16.57;;
49840;SDS011;35738;49.890;5.930;2022-12-18T10:38:04;38.57;;;17.43;;
49840;SDS011;35738;49.890;5.930;2022-12-18T10:48:39;40.30;;;17.63;;
49840;SDS011;35738;49.890;5.930;2022-12-18T10:53:51;35.87;;;17.13;;
49840;SDS011;35738;49.890;5.930;2022-12-18T10:56:24;40.10;;;18.57;;
49840;SDS011;35738;49.890;5.930;2022-12-18T10:59:03;35.87;;;16.67;;
49840;SDS011;35738;49.890;5.930;2022-12-18T11:01:54;38.00;;;18.10;;
49840;SDS011;35738;49.890;5.930;2022-12-18T11:04:26;40.73;;;19.43;;
49840;SDS011;35738;49.890;5.930;2022-12-18T11:07:01;41.63;;;18.53;;
49840;SDS011;35738;49.890;5.930;2022-12-18T11:09:30;39.63;;;18.97;;
49840;SDS011;35738;49.890;5.930;2022-12-18T11:12:01;38.17;;;18.00;;
49840;SDS011;35738;49.890;5.930;2022-12-18T11:17:19;37.83;;;17.93;;
49840;SDS011;35738;49.890;5.930;2022-12-18T11:19:58;38.63;;;18.47;;
49840;SDS011;35738;49.890;5.930;2022-12-18T11:22:27;42.10;;;19.27;;
49840;SDS011;35738;49.890;5.930;2022-12-18T11:24:56;39.73;;;18.57;;
49840;SDS011;35738;49.890;5.930;2022-12-18T11:28:04;37.43;;;18.10;;
49840;SDS011;35738;49.890;5.930;2022-12-18T11:31:08;39.50;;;18.43;;
49840;SDS011;35738;49.890;5.930;2022-12-18T11:33:36;40.53;;;18.43;;
49840;SDS011;35738;49.890;5.930;2022-12-18T11:36:28;34.80;;;16.87;;
49840;SDS011;35738;49.890;5.930;2022-12-18T11:39:00;38.87;;;18.87;;
49840;SDS011;35738;49.890;5.930;2022-12-18T11:41:45;37.90;;;18.03;;
49840;SDS011;35738;49.890;5.930;2022-12-18T11:47:30;36.07;;;17.53;;
49840;SDS011;35738;49.890;5.930;2022-12-18T11:50:10;35.93;;;17.83;;
49840;SDS011;35738;49.890;5.930;2022-12-18T11:52:41;41.00;;;20.13;;
49840;SDS011;35738;49.890;5.930;2022-12-18T11:55:12;39.80;;;18.97;;
49840;SDS011;35738;49.890;5.930;2022-12-18T11:57:54;35.17;;;17.83;;
49840;SDS011;35738;49.890;5.930;2022-12-18T12:00:32;36.40;;;18.67;;
49840;SDS011;35738;49.890;5.930;2022-12-18T12:15:13;38.30;;;19.43;;
49840;SDS011;35738;49.890;5.930;2022-12-18T12:39:36;43.87;;;20.80;;
49840;SDS011;35738;49.890;5.930;2022-12-18T12:42:08;42.30;;;20.43;;
49840;SDS011;35738;49.890;5.930;2022-12-18T12:45:00;43.57;;;21.13;;
49840;SDS011;35738;49.890;5.930;2022-12-18T12:47:35;47.87;;;20.60;;
49840;SDS011;35738;49.890;5.930;2022-12-18T12:50:12;39.83;;;19.87;;
49840;SDS011;35738;49.890;5.930;2022-12-18T12:52:44;42.40;;;19.13;;
49840;SDS011;35738;49.890;5.930;2022-12-18T12:55:25;41.97;;;19.80;;
49840;SDS011;35738;49.890;5.930;2022-12-18T13:00:49;44.13;;;20.67;;
49840;SDS011;35738;49.890;5.930;2022-12-18T13:06:35;42.27;;;20.77;;
49840;SDS011;35738;49.890;5.930;2022-12-18T13:09:20;40.80;;;20.33;;
49840;SDS011;35738;49.890;5.930;2022-12-18T13:11:47;43.70;;;22.27;;
49840;SDS011;35738;49.890;5.930;2022-12-18T13:14:39;43.40;;;20.93;;
49840;SDS011;35738;49.890;5.930;2022-12-18T13:19:52;49.57;;;22.70;;
49840;SDS011;35738;49.890;5.930;2022-12-18T13:22:48;47.40;;;22.37;;
49840;SDS011;35738;49.890;5.930;2022-12-18T13:25:35;48.47;;;22.43;;
49840;SDS011;35738;49.890;5.930;2022-12-18T13:28:04;43.60;;;20.80;;
49840;SDS011;35738;49.890;5.930;2022-12-18T13:35:51;50.70;;;24.23;;
49840;SDS011;35738;49.890;5.930;2022-12-18T13:40:59;47.53;;;24.07;;
49840;SDS011;35738;49.890;5.930;2022-12-18T13:43:51;45.67;;;21.47;;
49840;SDS011;35738;49.890;5.930;2022-12-18T13:51:41;55.17;;;23.87;;
49840;SDS011;35738;49.890;5.930;2022-12-18T13:54:18;47.83;;;22.13;;
49840;SDS011;35738;49.890;5.930;2022-12-18T13:56:48;46.73;;;22.50;;
49840;SDS011;35738;49.890;5.930;2022-12-18T13:59:17;47.63;;;22.50;;
49840;SDS011;35738;49.890;5.930;2022-12-18T14:04:28;46.40;;;22.20;;
49840;SDS011;35738;49.890;5.930;2022-12-18T14:13:03;48.13;;;22.00;;
49840;SDS011;35738;49.890;5.930;2022-12-18T14:15:35;47.80;;;22.07;;
49840;SDS011;35738;49.890;5.930;2022-12-18T14:18:22;46.00;;;21.67;;
49840;SDS011;35738;49.890;5.930;2022-12-18T14:21:04;46.23;;;23.47;;
49840;SDS011;35738;49.890;5.930;2022-12-18T14:23:33;49.77;;;22.07;;
49840;SDS011;35738;49.890;5.930;2022-12-18T14:26:03;50.47;;;23.97;;
49840;SDS011;35738;49.890;5.930;2022-12-18T14:28:46;53.17;;;23.87;;
49840;SDS011;35738;49.890;5.930;2022-12-18T14:31:20;48.77;;;22.57;;
49840;SDS011;35738;49.890;5.930;2022-12-18T14:33:49;50.50;;;22.63;;
49840;SDS011;35738;49.890;5.930;2022-12-18T14:36:20;61.20;;;26.73;;
49840;SDS011;35738;49.890;5.930;2022-12-18T14:38:52;53.73;;;24.77;;
49840;SDS011;35738;49.890;5.930;2022-12-18T14:41:20;53.40;;;23.73;;
49840;SDS011;35738;49.890;5.930;2022-12-18T14:43:49;57.57;;;24.97;;
49840;SDS011;35738;49.890;5.930;2022-12-18T14:46:34;53.23;;;24.47;;
49840;SDS011;35738;49.890;5.930;2022-12-18T14:52:05;55.47;;;23.87;;
49840;SDS011;35738;49.890;5.930;2022-12-18T14:54:45;53.13;;;23.70;;
49840;SDS011;35738;49.890;5.930;2022-12-18T14:57:20;53.23;;;23.67;;
49840;SDS011;35738;49.890;5.930;2022-12-18T14:59:49;58.50;;;26.17;;
49840;SDS011;35738;49.890;5.930;2022-12-18T15:02:22;62.00;;;26.53;;
49840;SDS011;35738;49.890;5.930;2022-12-18T15:05:01;62.60;;;25.87;;
49840;SDS011;35738;49.890;5.930;2022-12-18T15:07:42;57.40;;;25.70;;
49840;SDS011;35738;49.890;5.930;2022-12-18T15:10:14;58.70;;;25.77;;
49840;SDS011;35738;49.890;5.930;2022-12-18T15:12:47;67.07;;;26.23;;
49840;SDS011;35738;49.890;5.930;2022-12-18T15:15:58;66.10;;;27.23;;
49840;SDS011;35738;49.890;5.930;2022-12-18T15:20:38;68.80;;;28.57;;
49840;SDS011;35738;49.890;5.930;2022-12-18T15:25:59;65.50;;;27.53;;
49840;SDS011;35738;49.890;5.930;2022-12-18T15:36:20;67.77;;;28.63;;
49840;SDS011;35738;49.890;5.930;2022-12-18T15:38:52;67.53;;;27.97;;
49840;SDS011;35738;49.890;5.930;2022-12-18T15:41:22;68.87;;;28.90;;
49840;SDS011;35738;49.890;5.930;2022-12-18T15:43:50;70.63;;;29.83;;
49840;SDS011;35738;49.890;5.930;2022-12-18T15:46:19;72.60;;;29.23;;
49840;SDS011;35738;49.890;5.930;2022-12-18T15:48:48;76.80;;;29.20;;
49840;SDS011;35738;49.890;5.930;2022-12-18T15:51:24;73.63;;;29.73;;
49840;SDS011;35738;49.890;5.930;2022-12-18T15:53:55;75.23;;;30.87;;
49840;SDS011;35738;49.890;5.930;2022-12-18T15:56:24;70.67;;;29.13;;
49840;SDS011;35738;49.890;5.930;2022-12-18T15:59:16;72.53;;;29.63;;
49840;SDS011;35738;49.890;5.930;2022-12-18T16:01:45;72.63;;;30.03;;
49840;SDS011;35738;49.890;5.930;2022-12-18T16:04:14;74.90;;;30.10;;
49840;SDS011;35738;49.890;5.930;2022-12-18T16:06:43;74.37;;;30.27;;
49840;SDS011;35738;49.890;5.930;2022-12-18T16:09:29;69.50;;;29.97;;
49840;SDS011;35738;49.890;5.930;2022-12-18T16:11:56;74.17;;;30.10;;
49840;SDS011;35738;49.890;5.930;2022-12-18T16:14:23;82.67;;;31.03;;
49840;SDS011;35738;49.890;5.930;2022-12-18T16:17:00;80.27;;;31.83;;
49840;SDS011;35738;49.890;5.930;2022-12-18T16:19:29;77.87;;;30.47;;
49840;SDS011;35738;49.890;5.930;2022-12-18T16:21:57;75.10;;;30.57;;
49840;SDS011;35738;49.890;5.930;2022-12-18T16:24:26;85.00;;;32.40;;
49840;SDS011;35738;49.890;5.930;2022-12-18T16:26:55;90.20;;;32.83;;
49840;SDS011;35738;49.890;5.930;2022-12-18T16:29:25;81.07;;;33.93;;
49840;SDS011;35738;49.890;5.930;2022-12-18T16:31:58;86.10;;;33.17;;
49840;SDS011;35738;49.890;5.930;2022-12-18T16:34:27;81.10;;;31.97;;
49840;SDS011;35738;49.890;5.930;2022-12-18T16:36:58;81.47;;;32.67;;
49840;SDS011;35738;49.890;5.930;2022-12-18T16:39:31;84.63;;;31.83;;
49840;SDS011;35738;49.890;5.930;2022-12-18T16:42:05;91.73;;;34.00;;
49840;SDS011;35738;49.890;5.930;2022-12-18T16:44:35;94.40;;;36.20;;
49840;SDS011;35738;49.890;5.930;2022-12-18T16:47:02;81.17;;;33.87;;
49840;SDS011;35738;49.890;5.930;2022-12-18T16:49:30;81.30;;;32.30;;
49840;SDS011;35738;49.890;5.930;2022-12-18T16:51:57;88.27;;;33.53;;
49840;SDS011;35738;49.890;5.930;2022-12-18T16:54:23;94.27;;;34.07;;
49840;SDS011;35738;49.890;5.930;2022-12-18T16:56:50;85.87;;;32.67;;
49840;SDS011;35738;49.890;5.930;2022-12-18T16:59:17;93.10;;;34.37;;
49840;SDS011;35738;49.890;5.930;2022-12-18T17:01:45;86.73;;;34.17;;
49840;SDS011;35738;49.890;5.930;2022-12-18T17:04:12;93.87;;;35.87;;
49840;SDS011;35738;49.890;5.930;2022-12-18T17:06:41;97.60;;;36.33;;
49840;SDS011;35738;49.890;5.930;2022-12-18T17:09:13;90.87;;;34.30;;
49840;SDS011;35738;49.890;5.930;2022-12-18T17:11:41;92.10;;;34.67;;
49840;SDS011;35738;49.890;5.930;2022-12-18T17:14:09;86.97;;;34.13;;